Time;durP1;ratioP1;P1;durP2;ratioP2;P2;SDS_P1;SDS_P2;PMS_P1;PMS_P2;Temp;Humidity;BMP_temperature;BMP_pressure;BME280_temperature;BME280_humidity;BME280_pressure;Samples;Min_cycle;Max_cycle;Signal;HPM_P1;HPM_P2
2022/09/10 00:00:15;;;;;;;20.68;16.48;;;;;;;18.23;100.00;100446.56;5402130;54;1145490;-68
2022/09/10 00:05:23;;;;;;;21.82;15.78;;;;;;;18.26;100.00;100450.74;5402067;54;1145418;-70
2022/09/10 00:10:29;;;;;;;22.70;16.97;;;;;;;18.31;100.00;100454.26;5400433;54;1145440;-67
2022/09/10 00:15:48;;;;;;;20.08;16.32;;;;;;;18.32;100.00;100443.88;5401083;54;1145381;-72
2022/09/10 00:20:57;;;;;;;18.70;16.32;;;;;;;18.29;100.00;100433.01;5401438;54;1143213;-72
2022/09/10 00:26:22;;;;;;;23.27;16.73;;;;;;;18.30;100.00;100439.20;5401153;54;1143178;-70
2022/09/10 00:31:31;;;;;;;22.05;16.80;;;;;;;18.25;100.00;100441.04;5402673;54;1143647;-69
2022/09/10 00:36:42;;;;;;;20.65;17.12;;;;;;;18.21;100.00;100447.23;5310758;55;1143289;-69
2022/09/10 00:41:49;;;;;;;26.27;17.10;;;;;;;18.17;100.00;100439.23;5217173;56;1143293;-66
2022/09/10 00:46:56;;;;;;;21.10;16.02;;;;;;;18.08;100.00;100435.38;5217222;56;1143440;-70
2022/09/10 00:52:02;;;;;;;22.10;16.97;;;;;;;18.01;100.00;100429.88;5221928;56;1143252;-72
2022/09/10 00:57:15;;;;;;;23.38;17.00;;;;;;;17.95;100.00;100430.55;5229640;56;1142665;-70
2022/09/10 01:02:22;;;;;;;23.87;18.03;;;;;;;17.89;100.00;100431.20;5305809;55;1141303;-68
2022/09/10 01:07:30;;;;;;;25.65;16.70;;;;;;;17.85;100.00;100433.91;5209435;56;1141189;-68
2022/09/10 01:13:00;;;;;;;20.57;16.75;;;;;;;17.76;100.00;100433.05;5310726;55;1145251;-71
2022/09/10 01:18:23;;;;;;;20.90;17.32;;;;;;;17.71;100.00;100435.92;5221828;56;1145329;-69
2022/09/10 01:23:58;;;;;;;;;;;;;;;17.66;100.00;100436.41;5304884;55;1145515;-71
2022/09/10 01:29:27;;;;;;;21.00;15.67;;;;;;;17.67;100.00;100428.72;5276488;55;978529;-68
2022/09/10 01:34:53;;;;;;;21.20;16.50;;;;;;;17.65;100.00;100416.52;5130499;57;1143194;-72
2022/09/10 01:40:02;;;;;;;24.57;16.75;;;;;;;17.66;100.00;100403.47;5101727;57;1145152;-67
2022/09/10 01:45:13;;;;;;;19.60;13.83;;;;;;;17.63;100.00;100391.23;5186349;56;1145198;-70
2022/09/10 01:50:28;;;;;;;16.52;12.73;;;;;;;17.67;100.00;100382.41;5103422;57;1145351;-71
2022/09/10 01:55:43;;;;;;;19.57;13.18;;;;;;;17.65;100.00;100369.70;5179047;56;1145221;-69
2022/09/10 02:00:55;;;;;;;16.07;12.75;;;;;;;17.57;100.00;100393.23;5179521;56;1145470;-70
2022/09/10 02:06:03;;;;;;;14.60;10.17;;;;;;;17.57;100.00;100393.23;5155736;57;1145408;-71
2022/09/10 02:11:13;;;;;;;9.57;8.13;;;;;;;17.54;100.00;100403.78;5170326;57;1143466;-70
2022/09/10 02:16:39;;;;;;;13.00;9.03;;;;;;;17.51;100.00;100420.16;5143426;56;1139052;-68
2022/09/10 02:21:45;;;;;;;10.68;8.03;;;;;;;17.42;100.00;100425.64;5274764;56;1141282;-71
2022/09/10 02:26:51;;;;;;;8.70;6.93;;;;;;;17.34;100.00;100433.66;5278156;55;1141477;-69
2022/09/10 02:31:57;;;;;;;11.77;6.37;;;;;;;17.27;100.00;100436.64;5311265;55;1139124;-68
2022/09/10 02:37:04;;;;;;;6.03;5.07;;;;;;;17.21;100.00;100440.83;5217846;56;1141268;-68
2022/09/10 02:42:17;;;;;;;5.67;4.40;;;;;;;17.14;100.00;100439.80;5217498;56;1139283;-66
2022/09/10 02:47:22;;;;;;;7.23;5.17;;;;;;;17.10;100.00;100435.30;5135735;57;1139268;-70
2022/09/10 02:52:28;;;;;;;7.13;4.50;;;;;;;17.16;100.00;100429.78;5264157;55;1139264;-71
2022/09/10 02:57:34;;;;;;;14.28;7.62;;;;;;;17.12;100.00;100424.42;5222244;56;1139216;-66
2022/09/10 03:02:40;;;;;;;4.97;3.90;;;;;;;17.19;100.00;100421.44;5222487;56;1141180;-70
2022/09/10 03:07:46;;;;;;;4.87;4.37;;;;;;;17.29;100.00;100423.45;5217688;56;1136944;-70
2022/09/10 03:12:53;;;;;;;4.73;4.23;;;;;;;17.39;100.00;100420.15;5268953;55;1137160;-69
2022/09/10 03:17:59;;;;;;;5.37;4.80;;;;;;;17.43;100.00;100423.30;5384032;54;1141156;-68
2022/09/10 03:23:05;;;;;;;5.08;4.00;;;;;;;17.37;100.00;100422.14;5280296;54;1141076;-71
2022/09/10 03:28:12;;;;;;;3.92;3.52;;;;;;;17.27;100.00;100425.95;5369835;54;1141092;-72
2022/09/10 03:33:20;;;;;;;4.80;4.30;;;;;;;17.16;100.00;100425.27;5370130;55;1141090;-68
2022/09/10 03:38:26;;;;;;;3.90;3.60;;;;;;;16.99;100.00;100425.39;5369758;55;1141110;-69
2022/09/10 03:43:32;;;;;;;6.03;3.73;;;;;;;16.93;100.00;100422.05;5369959;54;1141139;-67
2022/09/10 03:48:42;;;;;;;5.83;3.60;;;;;;;16.83;100.00;100426.17;5258084;56;1141124;-69
2022/09/10 03:59:06;;;;;;;4.33;3.20;;;;;;;16.80;100.00;100426.52;5380817;55;46629;-67
2022/09/10 04:04:13;;;;;;;5.00;3.13;;;;;;;16.81;100.00;100429.50;5151363;57;1136912;-68
2022/09/10 04:09:19;;;;;;;5.13;3.10;;;;;;;16.78;100.00;100437.36;5098782;57;1141156;-67
2022/09/10 04:14:25;;;;;;;4.23;2.50;;;;;;;16.76;100.00;100445.19;4969903;59;1141139;-67
2022/09/10 04:19:32;;;;;;;2.80;2.40;;;;;;;16.79;100.00;100440.37;4986666;59;1141201;-65
2022/09/10 04:24:39;;;;;;;5.37;3.03;;;;;;;16.76;100.00;100431.34;4986542;59;1141198;-67
2022/09/10 04:29:45;;;;;;;6.40;3.33;;;;;;;16.74;100.00;100430.66;4986131;59;1141115;-66
2022/09/10 04:34:51;;;;;;;4.07;3.13;;;;;;;16.82;100.00;100425.83;5045720;58;1141070;-69
2022/09/10 04:39:58;;;;;;;3.53;2.57;;;;;;;16.84;100.00;100431.85;5066838;58;1141067;-66
2022/09/10 04:45:05;;;;;;;5.47;3.30;;;;;;;16.83;100.00;100432.35;5080737;57;1141146;-66
2022/09/10 04:50:16;;;;;;;5.47;3.10;;;;;;;16.72;100.00;100425.97;5072153;57;1141208;-63
2022/09/10 04:55:24;;;;;;;15.83;3.70;;;;;;;16.72;100.00;100429.98;5148789;56;1141105;-68
2022/09/10 05:00:31;;;;;;;6.00;3.30;;;;;;;16.77;100.00;100429.01;5129872;56;1143156;-68
2022/09/10 05:05:36;;;;;;;3.37;2.97;;;;;;;16.83;100.00;100435.52;5106506;56;1141104;-64
2022/09/10 05:10:44;;;;;;;6.33;4.00;;;;;;;16.89;100.00;100433.55;5100880;57;1141092;-65
2022/09/10 05:15:50;;;;;;;5.13;3.47;;;;;;;16.87;100.00;100426.20;5067095;57;1141210;-69
2022/09/10 05:20:56;;;;;;;6.77;2.77;;;;;;;16.80;100.00;100426.52;5093928;57;1141180;-64
2022/09/10 05:26:02;;;;;;;5.90;3.03;;;;;;;16.90;100.00;100432.55;5127868;57;1141154;-67
2022/09/10 05:31:08;;;;;;;12.63;3.33;;;;;;;16.86;100.00;100436.54;5102422;57;1141247;-65
2022/09/10 05:36:15;;;;;;;9.00;2.87;;;;;;;16.74;100.00;100429.82;5101437;57;1143291;-65
2022/09/10 05:41:22;;;;;;;3.90;2.33;;;;;;;16.61;100.00;100424.06;5091994;57;1141376;-65
2022/09/10 05:46:29;;;;;;;3.40;2.73;;;;;;;16.49;100.00;100427.02;5102070;57;1141131;-69
2022/09/10 05:51:37;;;;;;;2.83;2.37;;;;;;;16.43;100.00;100416.97;5101439;57;1141545;-65
2022/09/10 05:56:45;;;;;;;4.37;2.20;;;;;;;16.37;100.00;100413.58;5092921;57;1141381;-65
2022/09/10 06:01:52;;;;;;;4.90;2.70;;;;;;;16.37;100.00;100420.26;5131478;57;1139035;-66
2022/09/10 06:07:00;;;;;;;3.47;2.37;;;;;;;16.39;100.00;100425.44;5106309;57;1139372;-63
2022/09/10 06:12:06;;;;;;;3.50;2.70;;;;;;;16.41;100.00;100424.78;5076469;57;1139246;-66
2022/09/10 06:17:15;;;;;;;4.40;2.63;;;;;;;16.52;100.00;100425.84;5108105;57;1139029;-66
2022/09/10 06:22:21;;;;;;;2.70;2.50;;;;;;;16.58;100.00;100420.37;5101511;57;1138984;-67
2022/09/10 06:27:29;;;;;;;5.13;3.03;;;;;;;16.52;100.00;100410.66;5114731;57;1139269;-64
2022/09/10 06:32:36;;;;;;;4.60;2.53;;;;;;;16.60;100.00;100415.71;5095649;57;1139005;-64
2022/09/10 06:37:42;;;;;;;5.70;2.80;;;;;;;16.64;100.00;100422.45;5063861;58;1139009;-64
2022/09/10 06:42:50;;;;;;;2.77;2.20;;;;;;;16.68;100.00;100425.95;5063770;57;1139278;-70
2022/09/10 06:48:00;;;;;;;2.90;2.70;;;;;;;16.76;100.00;100429.16;5063333;57;1139097;-67
2022/09/10 06:53:09;;;;;;;4.83;3.23;;;;;;;16.78;100.00;100438.70;5115325;57;1139037;-65
2022/09/10 06:58:19;;;;;;;5.27;3.17;;;;;;;16.76;100.00;100441.19;5147039;57;1138959;-66
2022/09/10 07:03:25;;;;;;;3.13;2.60;;;;;;;16.68;100.00;100443.30;5230488;56;1139021;-70
2022/09/10 07:08:31;;;;;;;4.20;2.80;;;;;;;16.67;100.00;100438.95;5235686;56;1139013;-69
2022/09/10 07:13:38;;;;;;;4.97;2.87;;;;;;;16.68;100.00;100445.14;5235772;56;1136933;-69
2022/09/10 07:18:46;;;;;;;5.72;2.98;;;;;;;16.69;100.00;100438.80;5235570;56;1136978;-70
2022/09/10 07:23:59;;;;;;;3.17;2.20;;;;;;;16.79;100.00;100433.69;5235900;56;1141057;-68
2022/09/10 07:29:07;;;;;;;4.10;2.30;;;;;;;16.86;100.00;100426.69;5235608;56;1141090;-66
2022/09/10 07:34:13;;;;;;;4.53;2.80;;;;;;;16.90;100.00;100428.55;5179190;56;1141199;-67
2022/09/10 07:39:19;;;;;;;2.60;2.40;;;;;;;16.93;100.00;100426.89;5197690;56;1141089;-70
2022/09/10 07:44:24;;;;;;;9.73;2.63;;;;;;;16.98;100.00;100424.55;5201846;56;1141114;-69
2022/09/10 07:49:31;;;;;;;5.53;2.60;;;;;;;17.03;100.00;100424.91;5184262;56;1141132;-68
2022/09/10 07:54:37;;;;;;;7.57;2.40;;;;;;;17.14;100.00;100426.44;5188497;56;1140972;-66
2022/09/10 07:59:43;;;;;;;4.17;2.90;;;;;;;17.17;100.00;100426.11;5184071;56;1141352;-66
2022/09/10 08:04:50;;;;;;;4.50;2.87;;;;;;;17.26;100.00;100416.29;5034411;58;1141136;-65
2022/09/10 08:09:56;;;;;;;2.57;2.37;;;;;;;17.32;100.00;100410.27;4996141;58;1141069;-66
2022/09/10 08:15:03;;;;;;;1.83;1.47;;;;;;;17.38;100.00;100402.94;5058154;58;1141166;-66
2022/09/10 08:20:12;;;;;;;2.13;1.13;;;;;;;17.44;100.00;100407.59;5042965;58;1141176;-69
2022/09/10 08:25:20;;;;;;;4.63;1.57;;;;;;;17.44;100.00;100416.95;4919565;59;1140940;-68
2022/09/10 08:30:26;;;;;;;2.83;1.50;;;;;;;17.49;100.00;100422.66;4974703;59;1141227;-69
2022/09/10 08:35:33;;;;;;;2.33;1.35;;;;;;;17.50;100.00;100423.83;5021950;59;1141152;-68
2022/09/10 08:40:44;;;;;;;3.10;1.40;;;;;;;17.52;100.00;100424.50;4980631;59;1141242;-67
2022/09/10 08:45:53;;;;;;;3.97;2.97;;;;;;;17.55;100.00;100426.02;4975510;59;1141347;-68
2022/09/10 08:51:03;;;;;;;3.30;2.40;;;;;;;17.59;100.00;100421.98;5130911;57;1141160;-69
2022/09/10 08:56:19;;;;;;;8.33;4.73;;;;;;;17.64;100.00;100418.34;5105639;57;1141158;-69
2022/09/10 09:01:32;;;;;;;3.62;1.10;;;;;;;17.74;100.00;100424.86;5125381;57;1141221;-67
2022/09/10 09:06:51;;;;;;;4.05;1.35;;;;;;;17.70;100.00;100424.38;5033268;58;1141212;-69
2022/09/10 09:12:14;;;;;;;1.30;1.30;;;;;;;17.72;100.00;100425.02;4977633;58;1141252;-69
2022/09/10 09:17:58;;;;;;;2.27;1.20;;;;;;;17.81;100.00;100430.72;4993614;58;1141331;-69
2022/09/10 09:23:40;;;;;;;1.65;1.52;;;;;;;17.84;100.00;100418.86;5065727;57;1139066;-71
2022/09/10 09:29:04;;;;;;;1.62;1.52;;;;;;;17.91;100.00;100418.50;4982036;59;1139363;-68
2022/09/10 09:34:18;;;;;;;1.75;1.30;;;;;;;17.94;100.00;100418.17;5079210;57;1136906;-69
2022/09/10 09:39:32;;;;;;;3.60;1.47;;;;;;;17.95;100.00;100419.00;5080122;58;1141089;-70
2022/09/10 09:45:01;;;;;;;1.63;1.10;;;;;;;17.99;100.00;100419.00;5063973;58;1141367;-66
2022/09/10 09:50:12;;;;;;;1.12;1.02;;;;;;;17.95;100.00;100423.02;5006932;57;1140985;-68
2022/09/10 09:55:37;;;;;;;5.55;1.30;;;;;;;17.91;100.00;100422.01;5042069;58;1141391;-70
2022/09/10 10:00:43;;;;;;;1.70;1.60;;;;;;;17.90;100.00;100422.17;5108244;57;1140990;-68
2022/09/10 10:05:49;;;;;;;0.90;0.90;;;;;;;17.87;100.00;100423.34;5084297;57;1141311;-69
2022/09/10 10:10:56;;;;;;;4.28;1.10;;;;;;;17.89;100.00;100422.67;4971231;58;1140971;-68
2022/09/10 10:16:21;;;;;;;4.50;1.07;;;;;;;17.88;100.00;100429.03;5014541;58;1140976;-67
2022/09/10 10:21:35;;;;;;;1.00;0.88;;;;;;;17.86;100.00;100424.88;4978649;57;1141074;-66
2022/09/10 10:26:42;;;;;;;2.92;0.90;;;;;;;17.83;100.00;100432.73;4991190;58;1141424;-64
2022/09/10 10:31:52;;;;;;;3.22;0.88;;;;;;;17.84;100.00;100433.06;5044862;58;1140931;-69
2022/09/10 10:37:29;;;;;;;1.00;1.00;;;;;;;17.84;100.00;100436.25;5106791;57;1141341;-67
2022/09/10 10:42:48;;;;;;;3.27;1.07;;;;;;;17.81;100.00;100436.58;5110571;56;1141113;-66
2022/09/10 10:48:04;;;;;;;10.95;5.33;;;;;;;17.75;100.00;100435.89;5116224;56;1139266;-70
2022/09/10 10:53:29;;;;;;;5.03;1.65;;;;;;;17.71;100.00;100431.41;5118966;57;1141130;-69
2022/09/10 10:58:58;;;;;;;3.57;2.27;;;;;;;17.70;100.00;100435.58;5044353;57;1139251;-71
2022/09/10 11:04:29;;;;;;;2.83;1.83;;;;;;;17.70;100.00;100435.08;5117307;57;1138963;-71
2022/09/10 11:09:40;;;;;;;8.13;4.75;;;;;;;17.63;100.00;100442.05;5132138;57;1141083;-67
2022/09/10 11:14:50;;;;;;;7.07;2.83;;;;;;;17.61;100.00;100435.19;5187609;56;1141177;-69
2022/09/10 11:20:24;;;;;;;13.20;8.55;;;;;;;17.64;100.00;100438.91;5069262;57;1141037;-68
2022/09/10 11:25:38;;;;;;;19.50;10.08;;;;;;;17.68;100.00;100435.75;5007596;58;1143139;-70
2022/09/10 11:30:49;;;;;;;3.27;1.75;;;;;;;17.72;100.00;100436.25;5022640;58;1145575;-68
2022/09/10 11:36:02;;;;;;;8.83;7.53;;;;;;;17.72;100.00;100430.91;5064377;58;1141019;-66
2022/09/10 11:41:23;;;;;;;6.17;3.87;;;;;;;17.72;100.00;100432.24;4959004;59;1141203;-69
2022/09/10 11:46:51;;;;;;;12.77;5.73;;;;;;;17.71;100.00;100419.87;4937037;60;1141124;-63
2022/09/10 11:51:57;;;;;;;2.52;1.56;;;;;;;17.74;100.00;100415.00;4907469;59;1143294;-65
2022/09/10 11:57:36;;;;;;;2.03;1.87;;;;;;;17.71;100.00;100411.84;4910273;59;1141726;-65
2022/09/10 12:03:08;;;;;;;22.40;10.35;;;;;;;17.66;100.00;100412.33;4927036;58;1141066;-63
2022/09/10 12:08:25;;;;;;;4.40;2.80;;;;;;;17.61;100.00;100408.45;4897820;60;1143620;-66
2022/09/10 12:13:34;;;;;;;6.13;1.90;;;;;;;17.57;100.00;100406.59;4885083;59;1139006;-65
2022/09/10 12:18:49;;;;;;;2.63;2.20;;;;;;;17.56;100.00;100400.45;4937549;59;1139052;-66
2022/09/10 12:23:57;;;;;;;8.50;5.63;;;;;;;17.56;100.00;100400.45;4864311;59;1139129;-64
2022/09/10 12:29:04;;;;;;;11.13;9.10;;;;;;;17.56;100.00;100397.77;4852109;60;1139011;-67
2022/09/10 12:34:18;;;;;;;7.78;5.08;;;;;;;17.57;100.00;100387.38;4864100;59;1141189;-68
2022/09/10 12:39:27;;;;;;;4.30;3.90;;;;;;;17.64;100.00;100385.41;4904309;60;1139082;-63
2022/09/10 12:44:39;;;;;;;1.32;1.25;;;;;;;17.70;100.00;100380.25;4931057;58;1139228;-72
2022/09/10 12:49:56;;;;;;;3.40;1.08;;;;;;;17.70;100.00;100378.91;5066125;57;1136961;-66
2022/09/10 12:55:09;;;;;;;1.30;1.17;;;;;;;17.81;100.00;100376.37;4932618;58;1141070;-67
2022/09/10 13:00:24;;;;;;;;;;;;;;;17.77;100.00;100378.55;4931690;60;1141097;-68
2022/09/10 13:05:53;;;;;;;1.47;1.10;;;;;;;17.82;100.00;100374.88;4899486;60;978687;-67
2022/09/10 13:11:04;;;;;;;2.22;1.70;;;;;;;17.92;100.00;100366.16;4921299;58;1139264;-68
2022/09/10 13:16:19;;;;;;;1.13;0.97;;;;;;;17.96;100.00;100363.14;5016376;58;1141331;-67
2022/09/10 13:21:30;;;;;;;1.60;1.47;;;;;;;17.99;100.00;100366.83;4989817;59;1141147;-71
2022/09/10 13:26:48;;;;;;;1.73;1.60;;;;;;;18.04;100.00;100364.45;4972763;59;1141289;-69
2022/09/10 13:32:20;;;;;;;1.60;1.47;;;;;;;18.13;100.00;100362.11;5013672;58;1141124;-69
2022/09/10 13:37:45;;;;;;;1.87;1.10;;;;;;;18.16;100.00;100359.92;4991222;58;1141455;-67
2022/09/10 13:43:31;;;;;;;1.55;1.45;;;;;;;18.22;100.00;100353.86;4987000;59;1140958;-68
2022/09/10 13:48:48;;;;;;;0.90;0.70;;;;;;;18.19;100.00;100357.38;4943849;58;1139407;-70
2022/09/10 13:53:56;;;;;;;3.35;1.22;;;;;;;18.24;100.00;100350.52;4995080;58;1139177;-70
2022/09/10 13:59:03;;;;;;;8.20;5.12;;;;;;;18.28;100.00;100355.03;5086807;57;1139030;-69
2022/09/10 14:04:37;;;;;;;2.62;2.17;;;;;;;18.19;100.00;100344.83;4994056;58;1139152;-69
2022/09/10 14:09:46;;;;;;;1.57;1.57;;;;;;;18.21;100.00;100348.18;4994438;58;1139074;-69
2022/09/10 14:14:57;;;;;;;5.10;3.20;;;;;;;18.26;100.00;100343.16;4985703;58;1139309;-68
2022/09/10 14:20:08;;;;;;;0.80;0.80;;;;;;;18.31;100.00;100346.66;4991954;58;1137147;-71
2022/09/10 14:25:31;;;;;;;1.30;1.24;;;;;;;18.37;100.00;100345.11;4906725;59;1141393;-70
2022/09/10 14:30:37;;;;;;;0.73;0.73;;;;;;;18.36;100.00;100347.45;4933702;59;1141183;-71
2022/09/10 14:35:45;;;;;;;0.72;0.72;;;;;;;18.33;100.00;100347.83;4990367;59;1140588;-68
2022/09/10 14:41:00;;;;;;;2.06;0.70;;;;;;;18.29;100.00;100341.98;5043819;57;1141442;-71
2022/09/10 14:46:09;;;;;;;3.20;2.15;;;;;;;18.27;100.00;100334.11;5045502;57;1141028;-67
2022/09/10 14:51:21;;;;;;;1.37;1.12;;;;;;;18.34;100.00;100330.22;5008986;58;1141126;-71
2022/09/10 14:56:32;;;;;;;4.87;1.20;;;;;;;18.38;100.00;100326.20;5000689;57;1141082;-71
2022/09/10 15:01:39;;;;;;;1.47;1.05;;;;;;;18.43;100.00;100318.98;4959760;58;1141151;-71
2022/09/10 15:06:45;;;;;;;0.95;0.95;;;;;;;18.41;100.00;100317.82;5036202;57;1141349;-69
2022/09/10 15:12:04;;;;;;;1.55;1.45;;;;;;;18.38;100.00;100322.18;5021292;57;1141305;-70
2022/09/10 15:17:21;;;;;;;2.80;1.62;;;;;;;18.42;100.00;100322.67;5047402;57;1141379;-68
2022/09/10 15:22:27;;;;;;;2.80;1.98;;;;;;;18.36;100.00;100330.05;5059098;57;1141020;-70
2022/09/10 15:27:32;;;;;;;4.00;1.87;;;;;;;18.29;100.00;100321.90;5080041;57;1141100;-73
2022/09/10 15:32:38;;;;;;;7.20;1.62;;;;;;;18.21;100.00;100326.77;5066091;57;1141124;-68
2022/09/10 15:37:45;;;;;;;2.20;2.10;;;;;;;18.16;100.00;100322.45;5065396;57;1141379;-71
2022/09/10 15:42:51;;;;;;;12.47;10.08;;;;;;;18.09;100.00;100323.30;5105268;57;1141202;-69
2022/09/10 15:47:56;;;;;;;24.18;17.25;;;;;;;18.07;100.00;100318.62;5042683;58;1145857;-70
2022/09/10 15:53:03;;;;;;;5.67;4.42;;;;;;;18.12;100.00;100327.81;5036826;58;1145417;-72
2022/09/10 15:58:09;;;;;;;9.25;6.80;;;;;;;18.08;100.00;100329.66;5017056;58;1141171;-71
2022/09/10 16:03:14;;;;;;;5.03;4.00;;;;;;;17.99;100.00;100328.86;5101907;57;1141164;-68
2022/09/10 16:08:20;;;;;;;5.78;5.17;;;;;;;17.90;100.00;100335.22;5213443;56;1141094;-68
2022/09/10 16:13:27;;;;;;;5.28;4.15;;;;;;;17.85;100.00;100340.27;5188333;56;1141066;-67
2022/09/10 16:18:34;;;;;;;6.05;5.37;;;;;;;17.82;100.00;100341.44;5190084;56;1141172;-67
2022/09/10 16:23:41;;;;;;;9.38;6.30;;;;;;;17.81;100.00;100337.09;5196301;56;1141306;-65
2022/09/10 16:28:57;;;;;;;10.60;7.15;;;;;;;17.90;100.00;100340.56;5162976;56;1141093;-71
2022/09/10 16:34:06;;;;;;;15.08;10.05;;;;;;;17.92;100.00;100342.07;5175762;56;1141116;-68
2022/09/10 16:39:14;;;;;;;9.20;7.34;;;;;;;17.88;100.00;100340.73;5190856;56;1143239;-75
2022/09/10 16:44:20;;;;;;;11.75;5.20;;;;;;;17.86;100.00;100347.29;5225008;56;1138966;-70
2022/09/10 16:49:26;;;;;;;12.35;6.47;;;;;;;17.82;100.00;100345.45;5076530;57;1141370;-73
2022/09/10 16:54:32;;;;;;;8.63;5.10;;;;;;;17.67;100.00;100334.27;5063516;58;1141545;-68
2022/09/10 16:59:38;;;;;;;19.70;17.57;;;;;;;17.67;100.00;100334.27;5163865;57;1138886;-68
2022/09/10 17:04:44;;;;;;;11.00;5.50;;;;;;;17.61;100.00;100333.56;5232868;56;1143452;-69
2022/09/10 17:09:49;;;;;;;11.18;5.90;;;;;;;17.56;100.00;100343.45;5117185;56;1141182;-65
2022/09/10 17:14:55;;;;;;;11.73;6.83;;;;;;;17.51;100.00;100335.92;5021608;58;1141170;-70
2022/09/10 17:20:01;;;;;;;17.02;10.25;;;;;;;17.59;100.00;100343.09;4949688;58;1141290;-68
2022/09/10 17:25:06;;;;;;;14.23;9.28;;;;;;;17.63;100.00;100344.93;5010361;58;1143530;-70
2022/09/10 17:30:12;;;;;;;12.20;7.62;;;;;;;17.62;100.00;100336.07;4990431;58;1141318;-66
2022/09/10 17:35:19;;;;;;;26.65;13.03;;;;;;;17.63;100.00;100342.26;5033128;58;1141087;-69
2022/09/10 17:40:25;;;;;;;36.05;26.48;;;;;;;17.60;100.00;100344.77;4896125;58;1143263;-67
2022/09/10 17:45:30;;;;;;;29.42;18.60;;;;;;;17.61;100.00;100342.92;4881839;59;1143279;-67
2022/09/10 17:50:36;;;;;;;23.65;14.25;;;;;;;17.53;100.00;100345.95;4966528;59;1143243;-71
2022/09/10 17:55:42;;;;;;;10.48;6.00;;;;;;;17.52;100.00;100350.13;4983614;59;1143254;-67
2022/09/10 18:00:48;;;;;;;20.73;9.33;;;;;;;17.52;100.00;100354.98;4875026;60;1139425;-70
2022/09/10 18:05:55;;;;;;;14.63;9.58;;;;;;;17.54;100.00;100346.79;4875303;60;1139167;-72
2022/09/10 18:11:11;;;;;;;17.30;10.85;;;;;;;17.56;100.00;100350.97;5030029;57;1143145;-69
2022/09/10 18:16:23;;;;;;;31.47;16.27;;;;;;;17.55;100.00;100361.33;5161149;57;1145529;-70
2022/09/10 18:21:32;;;;;;;25.15;12.45;;;;;;;17.61;100.00;100366.99;5065793;57;1145715;-73
2022/09/10 18:26:41;;;;;;;29.50;14.87;;;;;;;17.55;100.00;100364.51;5103370;57;1145274;-70
2022/09/10 18:31:51;;;;;;;23.87;12.13;;;;;;;17.53;100.00;100358.48;5126141;56;1145225;-69
2022/09/10 18:37:01;;;;;;;17.55;11.00;;;;;;;17.52;100.00;100364.34;5160420;56;1145258;-68
2022/09/10 18:42:07;;;;;;;18.83;11.13;;;;;;;17.43;100.00;100368.49;5155516;57;1145282;-68
2022/09/10 18:47:13;;;;;;;18.12;9.50;;;;;;;17.37;100.00;100366.50;5141688;57;1145556;-72
2022/09/10 18:52:19;;;;;;;12.12;6.76;;;;;;;17.32;100.00;100364.82;5095599;56;1143437;-74
2022/09/10 18:57:26;;;;;;;10.63;7.70;;;;;;;17.34;100.00;100362.82;5025407;58;1143203;-71
2022/09/10 19:02:31;;;;;;;11.10;8.40;;;;;;;17.34;100.00;100359.65;5036812;57;1143167;-67
2022/09/10 19:07:37;;;;;;;16.33;9.27;;;;;;;17.26;100.00;100363.67;5026467;58;1143169;-67
2022/09/10 19:12:43;;;;;;;37.05;20.85;;;;;;;17.06;100.00;100359.13;5003383;57;1143442;-69
2022/09/10 19:17:48;;;;;;;42.27;25.47;;;;;;;17.03;100.00;100362.12;5004547;57;1145261;-69
2022/09/10 19:22:54;;;;;;;26.95;16.40;;;;;;;17.02;100.00;100359.61;4998932;58;1145498;-67
2022/09/10 19:28:00;;;;;;;18.50;10.30;;;;;;;17.01;100.00;100357.44;4985587;58;1145296;-69
2022/09/10 19:33:06;;;;;;;65.53;34.57;;;;;;;17.02;100.00;100353.77;4993121;58;1144629;-70
2022/09/10 19:38:13;;;;;;;48.42;27.52;;;;;;;17.10;100.00;100355.63;5141603;57;1145309;-70
2022/09/10 19:43:20;;;;;;;169.27;82.77;;;;;;;17.14;100.00;100351.10;5068259;57;1145255;-73
2022/09/10 19:48:25;;;;;;;100.07;51.65;;;;;;;17.12;100.00;100353.59;5125404;57;1147441;-65
2022/09/10 19:53:34;;;;;;;29.20;14.34;;;;;;;17.12;100.00;100353.10;5112255;57;1147377;-69
2022/09/10 19:58:40;;;;;;;15.13;9.60;;;;;;;17.13;100.00;100351.27;5137448;57;1145290;-70
2022/09/10 20:03:49;;;;;;;14.38;9.90;;;;;;;17.16;100.00;100357.12;5167000;56;1143201;-68
2022/09/10 20:08:55;;;;;;;15.78;11.05;;;;;;;17.18;100.00;100356.96;5122964;56;1143197;-67
2022/09/10 20:14:07;;;;;;;12.83;10.13;;;;;;;17.20;100.00;100346.95;5115272;57;1145381;-68
2022/09/10 20:19:20;;;;;;;13.45;10.78;;;;;;;17.16;100.00;100345.09;5002810;58;1145316;-71
2022/09/10 20:24:27;;;;;;;16.67;8.73;;;;;;;17.11;100.00;100341.27;5118741;57;1145360;-67
2022/09/10 20:29:33;;;;;;;17.17;11.33;;;;;;;17.05;100.00;100343.25;4997893;58;1143506;-70
2022/09/10 20:34:39;;;;;;;60.10;31.40;;;;;;;17.04;100.00;100343.75;5152695;56;1145285;-70
2022/09/10 20:39:47;;;;;;;26.27;15.93;;;;;;;17.06;100.00;100351.61;5094691;56;1145330;-67
2022/09/10 20:44:54;;;;;;;19.20;11.60;;;;;;;16.92;100.00;100352.25;5155894;56;1143212;-70
2022/09/10 20:50:00;;;;;;;38.60;18.30;;;;;;;16.67;100.00;100345.99;5236952;56;1143131;-70
2022/09/10 20:55:07;;;;;;;18.98;12.23;;;;;;;16.56;100.00;100351.60;5151098;57;1143207;-70
2022/09/10 21:00:14;;;;;;;29.03;16.00;;;;;;;16.60;100.00;100348.95;5150928;57;1143199;-68
2022/09/10 21:05:20;;;;;;;24.83;13.83;;;;;;;16.73;100.00;100342.19;5181275;56;1143318;-68
2022/09/10 21:10:26;;;;;;;22.30;13.57;;;;;;;16.82;100.00;100345.20;5170835;56;1143270;-69
2022/09/10 21:15:32;;;;;;;22.27;13.37;;;;;;;16.83;100.00;100342.03;5150770;57;1143235;-68
2022/09/10 21:20:39;;;;;;;20.60;13.20;;;;;;;16.79;100.00;100348.72;5150814;57;1143262;-72
2022/09/10 21:25:50;;;;;;;23.93;14.13;;;;;;;16.75;100.00;100348.20;5150944;57;1143418;-70
2022/09/10 21:30:59;;;;;;;26.37;15.00;;;;;;;16.77;100.00;100343.54;5115483;57;1143329;-68
2022/09/10 21:36:10;;;;;;;30.40;16.63;;;;;;;16.82;100.00;100338.52;5150875;57;1143425;-67
2022/09/10 21:41:20;;;;;;;32.90;18.07;;;;;;;16.82;100.00;100338.52;5150893;57;1143104;-66
2022/09/10 21:46:26;;;;;;;111.88;51.55;;;;;;;16.93;100.00;100340.06;5150688;56;1143298;-67
2022/09/10 21:51:31;;;;;;;35.27;18.57;;;;;;;16.86;100.00;100345.22;5150715;57;1145549;-69
2022/09/10 21:56:37;;;;;;;75.83;37.63;;;;;;;16.75;100.00;100334.02;5148207;57;1141166;-70
2022/09/10 22:01:45;;;;;;;21.80;14.97;;;;;;;16.73;100.00;100330.17;5146260;57;1141334;-68
2022/09/10 22:06:52;;;;;;;19.93;13.43;;;;;;;16.79;100.00;100329.53;5146326;57;1145248;-69
2022/09/10 22:11:58;;;;;;;21.23;13.77;;;;;;;16.86;100.00;100331.02;5141858;57;1145250;-70
2022/09/10 22:17:04;;;;;;;24.13;15.20;;;;;;;16.89;100.00;100336.05;5137674;57;1145257;-68
2022/09/10 22:22:10;;;;;;;161.57;73.63;;;;;;;16.89;100.00;100329.37;5137579;57;1145266;-66
2022/09/10 22:27:16;;;;;;;23.52;13.90;;;;;;;16.90;100.00;100328.37;5137238;57;1147371;-66
2022/09/10 22:32:22;;;;;;;18.70;13.24;;;;;;;16.90;100.00;100331.54;5141041;57;1145238;-68
2022/09/10 22:37:28;;;;;;;313.97;136.77;;;;;;;16.88;100.00;100334.38;5154023;57;1145286;-68
2022/09/10 22:42:34;;;;;;;156.87;71.47;;;;;;;16.82;100.00;100333.68;5164985;56;1149551;-67
2022/09/10 22:47:40;;;;;;;26.73;15.63;;;;;;;16.70;100.00;100329.16;5170665;56;1147346;-71
2022/09/10 22:52:45;;;;;;;20.07;11.83;;;;;;;16.69;100.00;100320.80;5127779;56;1145320;-67
2022/09/10 22:57:52;;;;;;;16.27;12.40;;;;;;;16.69;100.00;100323.47;5054910;58;1145322;-68
2022/09/10 23:02:58;;;;;;;152.23;68.20;;;;;;;16.68;100.00;100324.97;5017437;58;1145321;-68
2022/09/10 23:08:04;;;;;;;217.07;103.53;;;;;;;16.68;100.00;100323.63;4965001;59;1147360;-67